sensor_id;sensor_type;location;lat;lon;timestamp;pressure;altitude;pressure_sealevel;temperature;humidity
46768;BME280;69007;48.978;18.066;2023-10-19T00:01:58;96889.50;;;7.04;93.43
46768;BME280;69007;48.978;18.066;2023-10-19T00:04:27;96895.50;;;7.06;89.94
46768;BME280;69007;48.978;18.066;2023-10-19T00:06:57;96862.97;;;7.01;89.40
46768;BME280;69007;48.978;18.066;2023-10-19T00:09:22;96844.03;;;7.01;89.87
46768;BME280;69007;48.978;18.066;2023-10-19T00:11:48;96873.44;;;7.30;89.44
46768;BME280;69007;48.978;18.066;2023-10-19T00:14:17;96839.59;;;7.27;87.82
46768;BME280;69007;48.978;18.066;2023-10-19T00:16:43;96839.94;;;7.41;87.42
46768;BME280;69007;48.978;18.066;2023-10-19T00:19:27;96822.06;;;7.40;86.61
46768;BME280;69007;48.978;18.066;2023-10-19T00:21:56;96834.03;;;7.60;86.27
46768;BME280;69007;48.978;18.066;2023-10-19T00:24:27;96796.09;;;7.44;86.19
46768;BME280;69007;48.978;18.066;2023-10-19T00:26:52;96861.22;;;7.90;85.26
46768;BME280;69007;48.978;18.066;2023-10-19T00:29:19;96843.06;;;7.96;85.35
46768;BME280;69007;48.978;18.066;2023-10-19T00:31:59;96849.03;;;7.98;84.31
46768;BME280;69007;48.978;18.066;2023-10-19T00:34:27;96808.66;;;7.91;83.58
46768;BME280;69007;48.978;18.066;2023-10-19T00:36:53;96806.53;;;7.99;84.68
46768;BME280;69007;48.978;18.066;2023-10-19T00:39:20;96802.19;;;8.03;84.58
46768;BME280;69007;48.978;18.066;2023-10-19T00:41:47;96822.53;;;8.16;84.45
46768;BME280;69007;48.978;18.066;2023-10-19T00:44:13;96803.28;;;8.07;83.99
46768;BME280;69007;48.978;18.066;2023-10-19T00:46:42;96817.09;;;8.26;83.73
46768;BME280;69007;48.978;18.066;2023-10-19T00:49:08;96814.91;;;8.18;83.58
46768;BME280;69007;48.978;18.066;2023-10-19T00:52:01;96820.13;;;8.45;81.84
46768;BME280;69007;48.978;18.066;2023-10-19T00:54:38;96831.75;;;8.30;81.42
46768;BME280;69007;48.978;18.066;2023-10-19T00:57:19;96798.41;;;8.65;79.96
46768;BME280;69007;48.978;18.066;2023-10-19T00:59:46;96839.63;;;8.57;78.95
46768;BME280;69007;48.978;18.066;2023-10-19T01:02:12;96801.38;;;8.74;78.88
46768;BME280;69007;48.978;18.066;2023-10-19T01:04:48;96775.09;;;8.59;78.64
46768;BME280;69007;48.978;18.066;2023-10-19T01:07:21;96802.19;;;8.75;78.85
46768;BME280;69007;48.978;18.066;2023-10-19T01:09:48;96789.47;;;8.65;78.90
46768;BME280;69007;48.978;18.066;2023-10-19T01:12:18;96769.13;;;8.62;78.24
46768;BME280;69007;48.978;18.066;2023-10-19T01:17:46;96782.41;;;8.79;77.66
46768;BME280;69007;48.978;18.066;2023-10-19T01:20:13;96731.19;;;8.52;78.45
46768;BME280;69007;48.978;18.066;2023-10-19T01:25:20;96765.00;;;8.85;79.19
46768;BME280;69007;48.978;18.066;2023-10-19T01:27:59;96796.72;;;8.90;79.28
46768;BME280;69007;48.978;18.066;2023-10-19T01:30:24;96730.06;;;8.63;79.70
46768;BME280;69007;48.978;18.066;2023-10-19T01:32:49;96771.53;;;8.84;79.45
46768;BME280;69007;48.978;18.066;2023-10-19T01:35:15;96757.16;;;8.74;78.49
46768;BME280;69007;48.978;18.066;2023-10-19T01:37:40;96763.09;;;8.81;79.84
46768;BME280;69007;48.978;18.066;2023-10-19T01:40:07;96726.53;;;8.68;79.47
46768;BME280;69007;48.978;18.066;2023-10-19T01:42:33;96764.41;;;8.99;78.85
46768;BME280;69007;48.978;18.066;2023-10-19T01:44:59;96717.25;;;8.90;78.07
46768;BME280;69007;48.978;18.066;2023-10-19T01:47:25;96756.25;;;9.04;78.53
46768;BME280;69007;48.978;18.066;2023-10-19T01:49:50;96745.44;;;8.94;79.67
46768;BME280;69007;48.978;18.066;2023-10-19T01:52:17;96732.41;;;8.96;80.76
46768;BME280;69007;48.978;18.066;2023-10-19T01:54:43;96722.88;;;9.03;80.87
46768;BME280;69007;48.978;18.066;2023-10-19T01:57:08;96739.69;;;9.06;80.64
46768;BME280;69007;48.978;18.066;2023-10-19T01:59:35;96703.16;;;8.88;80.74
46768;BME280;69007;48.978;18.066;2023-10-19T02:02:00;96721.84;;;8.89;81.66
46768;BME280;69007;48.978;18.066;2023-10-19T02:04:27;96692.13;;;8.58;82.27
46768;BME280;69007;48.978;18.066;2023-10-19T02:06:53;96689.34;;;8.74;83.40
46768;BME280;69007;48.978;18.066;2023-10-19T02:09:18;96714.19;;;9.07;82.43
46768;BME280;69007;48.978;18.066;2023-10-19T02:11:52;96688.19;;;8.95;81.89
46768;BME280;69007;48.978;18.066;2023-10-19T02:14:20;96683.91;;;8.79;83.69
46768;BME280;69007;48.978;18.066;2023-10-19T02:16:51;96697.41;;;8.99;83.40
46768;BME280;69007;48.978;18.066;2023-10-19T02:19:17;96704.72;;;8.99;83.64
46768;BME280;69007;48.978;18.066;2023-10-19T02:21:43;96704.47;;;8.95;84.01
46768;BME280;69007;48.978;18.066;2023-10-19T02:24:13;96684.41;;;8.96;84.29
46768;BME280;69007;48.978;18.066;2023-10-19T02:26:40;96703.34;;;9.07;84.38
46768;BME280;69007;48.978;18.066;2023-10-19T02:29:06;96675.69;;;9.04;84.88
46768;BME280;69007;48.978;18.066;2023-10-19T02:31:35;96627.56;;;8.60;85.66
46768;BME280;69007;48.978;18.066;2023-10-19T02:34:08;96653.78;;;8.85;85.67
46768;BME280;69007;48.978;18.066;2023-10-19T02:36:36;96684.13;;;8.98;87.10
46768;BME280;69007;48.978;18.066;2023-10-19T02:39:07;96665.13;;;8.98;88.72
46768;BME280;69007;48.978;18.066;2023-10-19T02:41:37;96636.75;;;8.75;90.09
46768;BME280;69007;48.978;18.066;2023-10-19T02:44:14;96666.19;;;9.02;89.38
46768;BME280;69007;48.978;18.066;2023-10-19T02:46:42;96658.34;;;8.95;91.24
46768;BME280;69007;48.978;18.066;2023-10-19T02:49:09;96652.72;;;8.81;94.58
46768;BME280;69007;48.978;18.066;2023-10-19T02:51:40;96623.19;;;8.75;95.11
46768;BME280;69007;48.978;18.066;2023-10-19T02:54:07;96640.16;;;8.96;94.65
46768;BME280;69007;48.978;18.066;2023-10-19T02:56:33;96628.06;;;8.78;96.55
46768;BME280;69007;48.978;18.066;2023-10-19T02:59:01;96645.59;;;8.91;97.61
46768;BME280;69007;48.978;18.066;2023-10-19T03:01:30;96648.13;;;8.72;100.00
46768;BME280;69007;48.978;18.066;2023-10-19T03:04:00;96606.97;;;8.54;100.00
46768;BME280;69007;48.978;18.066;2023-10-19T03:06:27;96612.84;;;8.77;100.00
46768;BME280;69007;48.978;18.066;2023-10-19T03:08:57;96610.81;;;8.48;100.00
46768;BME280;69007;48.978;18.066;2023-10-19T03:11:27;96637.56;;;8.70;100.00
46768;BME280;69007;48.978;18.066;2023-10-19T03:13:53;96594.84;;;8.46;100.00
46768;BME280;69007;48.978;18.066;2023-10-19T03:16:19;96626.44;;;8.72;100.00
46768;BME280;69007;48.978;18.066;2023-10-19T03:18:45;96630.75;;;8.73;100.00
46768;BME280;69007;48.978;18.066;2023-10-19T03:21:11;96593.41;;;8.59;100.00
46768;BME280;69007;48.978;18.066;2023-10-19T03:23:36;96599.09;;;8.58;100.00
46768;BME280;69007;48.978;18.066;2023-10-19T03:26:02;96614.53;;;8.62;100.00
46768;BME280;69007;48.978;18.066;2023-10-19T03:28:47;96627.53;;;8.71;100.00
46768;BME280;69007;48.978;18.066;2023-10-19T03:31:12;96607.22;;;8.68;100.00
46768;BME280;69007;48.978;18.066;2023-10-19T03:33:46;96576.13;;;8.35;100.00
46768;BME280;69007;48.978;18.066;2023-10-19T03:36:20;96598.09;;;8.43;100.00
46768;BME280;69007;48.978;18.066;2023-10-19T03:38:46;96567.97;;;8.35;100.00
46768;BME280;69007;48.978;18.066;2023-10-19T03:41:11;96573.94;;;8.47;100.00
46768;BME280;69007;48.978;18.066;2023-10-19T03:43:37;96569.03;;;8.49;100.00
46768;BME280;69007;48.978;18.066;2023-10-19T03:46:06;96603.38;;;8.69;100.00
46768;BME280;69007;48.978;18.066;2023-10-19T03:48:58;96598.25;;;8.67;100.00
46768;BME280;69007;48.978;18.066;2023-10-19T03:51:39;96602.34;;;8.65;100.00
46768;BME280;69007;48.978;18.066;2023-10-19T03:54:27;96566.34;;;8.49;100.00
46768;BME280;69007;48.978;18.066;2023-10-19T03:56:53;96546.84;;;8.37;100.00
46768;BME280;69007;48.978;18.066;2023-10-19T03:59:21;96587.94;;;8.70;100.00
46768;BME280;69007;48.978;18.066;2023-10-19T04:01:46;96587.91;;;8.75;100.00
46768;BME280;69007;48.978;18.066;2023-10-19T04:04:13;96580.59;;;8.75;100.00
46768;BME280;69007;48.978;18.066;2023-10-19T04:06:41;96570.88;;;8.64;100.00
46768;BME280;69007;48.978;18.066;2023-10-19T04:09:12;96556.75;;;8.67;100.00
46768;BME280;69007;48.978;18.066;2023-10-19T04:11:41;96548.16;;;8.55;100.00
46768;BME280;69007;48.978;18.066;2023-10-19T04:14:17;96553.28;;;8.61;100.00
46768;BME280;69007;48.978;18.066;2023-10-19T04:16:45;96539.81;;;8.30;100.00
46768;BME280;69007;48.978;18.066;2023-10-19T04:19:11;96551.41;;;8.57;100.00
46768;BME280;69007;48.978;18.066;2023-10-19T04:21:37;96545.69;;;8.58;100.00
46768;BME280;69007;48.978;18.066;2023-10-19T04:24:09;96504.81;;;8.44;100.00
46768;BME280;69007;48.978;18.066;2023-10-19T04:26:35;96538.69;;;8.42;100.00
46768;BME280;69007;48.978;18.066;2023-10-19T04:29:06;96496.41;;;8.41;100.00
46768;BME280;69007;48.978;18.066;2023-10-19T04:31:42;96530.50;;;8.57;100.00
46768;BME280;69007;48.978;18.066;2023-10-19T04:34:20;96491.53;;;8.38;100.00
46768;BME280;69007;48.978;18.066;2023-10-19T04:36:49;96519.13;;;8.55;100.00
46768;BME280;69007;48.978;18.066;2023-10-19T04:39:15;96514.78;;;8.54;100.00
46768;BME280;69007;48.978;18.066;2023-10-19T04:41:40;96511.06;;;8.40;100.00
46768;BME280;69007;48.978;18.066;2023-10-19T04:44:06;96496.41;;;8.46;100.00
46768;BME280;69007;48.978;18.066;2023-10-19T04:46:34;96502.91;;;8.50;100.00
46768;BME280;69007;48.978;18.066;2023-10-19T04:48:59;96469.56;;;8.39;100.00
46768;BME280;69007;48.978;18.066;2023-10-19T04:51:25;96467.41;;;8.46;100.00
46768;BME280;69007;48.978;18.066;2023-10-19T04:53:52;96490.91;;;8.61;100.00
46768;BME280;69007;48.978;18.066;2023-10-19T04:56:17;96470.91;;;8.47;100.00
46768;BME280;69007;48.978;18.066;2023-10-19T04:58:42;96502.25;;;8.69;100.00
46768;BME280;69007;48.978;18.066;2023-10-19T05:01:08;96492.25;;;8.59;100.00
46768;BME280;69007;48.978;18.066;2023-10-19T05:03:36;96490.34;;;8.59;100.00
46768;BME280;69007;48.978;18.066;2023-10-19T05:06:02;96460.09;;;8.42;100.00
46768;BME280;69007;48.978;18.066;2023-10-19T05:08:27;96495.47;;;8.71;100.00
46768;BME280;69007;48.978;18.066;2023-10-19T05:10:53;96456.78;;;8.55;100.00
46768;BME280;69007;48.978;18.066;2023-10-19T05:13:20;96494.63;;;8.71;100.00
46768;BME280;69007;48.978;18.066;2023-10-19T05:15:46;96482.69;;;8.72;100.00
46768;BME280;69007;48.978;18.066;2023-10-19T05:18:12;96444.56;;;8.53;100.00
46768;BME280;69007;48.978;18.066;2023-10-19T05:20:37;96474.47;;;8.82;100.00
46768;BME280;69007;48.978;18.066;2023-10-19T05:23:06;96456.13;;;8.69;100.00
46768;BME280;69007;48.978;18.066;2023-10-19T05:25:32;96452.34;;;8.70;100.00
46768;BME280;69007;48.978;18.066;2023-10-19T05:27:57;96452.88;;;8.72;100.00
46768;BME280;69007;48.978;18.066;2023-10-19T05:30:23;96498.81;;;8.92;100.00
46768;BME280;69007;48.978;18.066;2023-10-19T05:32:50;96458.78;;;8.79;100.00
46768;BME280;69007;48.978;18.066;2023-10-19T05:35:16;96449.31;;;8.76;100.00
46768;BME280;69007;48.978;18.066;2023-10-19T05:37:48;96466.91;;;8.79;100.00
46768;BME280;69007;48.978;18.066;2023-10-19T05:40:14;96485.53;;;8.91;100.00
46768;BME280;69007;48.978;18.066;2023-10-19T05:42:40;96460.13;;;8.81;100.00
46768;BME280;69007;48.978;18.066;2023-10-19T05:45:06;96472.44;;;9.03;100.00
46768;BME280;69007;48.978;18.066;2023-10-19T05:47:31;96467.66;;;8.90;100.00
46768;BME280;69007;48.978;18.066;2023-10-19T05:49:57;96469.75;;;8.98;100.00
46768;BME280;69007;48.978;18.066;2023-10-19T05:52:22;96473.03;;;8.95;100.00
46768;BME280;69007;48.978;18.066;2023-10-19T05:54:47;96493.34;;;9.02;100.00
46768;BME280;69007;48.978;18.066;2023-10-19T05:57:14;96454.94;;;8.85;100.00
46768;BME280;69007;48.978;18.066;2023-10-19T05:59:40;96477.63;;;8.99;100.00
46768;BME280;69007;48.978;18.066;2023-10-19T06:02:06;96450.81;;;8.93;100.00
46768;BME280;69007;48.978;18.066;2023-10-19T06:04:32;96476.97;;;9.13;100.00
46768;BME280;69007;48.978;18.066;2023-10-19T06:06:58;96477.25;;;9.11;100.00
46768;BME280;69007;48.978;18.066;2023-10-19T06:09:23;96480.66;;;9.22;100.00
46768;BME280;69007;48.978;18.066;2023-10-19T06:11:55;96480.94;;;9.26;100.00
46768;BME280;69007;48.978;18.066;2023-10-19T06:14:20;96470.97;;;9.16;100.00
46768;BME280;69007;48.978;18.066;2023-10-19T06:16:45;96438.41;;;9.16;100.00
46768;BME280;69007;48.978;18.066;2023-10-19T06:19:11;96462.91;;;9.35;100.00
46768;BME280;69007;48.978;18.066;2023-10-19T06:21:36;96462.28;;;9.43;100.00
46768;BME280;69007;48.978;18.066;2023-10-19T06:24:02;96442.66;;;9.22;100.00
46768;BME280;69007;48.978;18.066;2023-10-19T06:26:28;96473.44;;;9.41;100.00
46768;BME280;69007;48.978;18.066;2023-10-19T06:28:54;96461.56;;;9.37;100.00
46768;BME280;69007;48.978;18.066;2023-10-19T06:31:24;96449.41;;;9.30;100.00
46768;BME280;69007;48.978;18.066;2023-10-19T06:33:51;96457.66;;;9.44;100.00
46768;BME280;69007;48.978;18.066;2023-10-19T06:36:16;96449.84;;;9.37;100.00
46768;BME280;69007;48.978;18.066;2023-10-19T06:38:42;96457.38;;;9.45;100.00
46768;BME280;69007;48.978;18.066;2023-10-19T06:41:14;96453.25;;;9.53;100.00
46768;BME280;69007;48.978;18.066;2023-10-19T06:43:40;96445.91;;;9.53;100.00
46768;BME280;69007;48.978;18.066;2023-10-19T06:46:07;96434.91;;;9.39;100.00
46768;BME280;69007;48.978;18.066;2023-10-19T06:51:58;96419.78;;;9.33;100.00
46768;BME280;69007;48.978;18.066;2023-10-19T06:54:24;96444.09;;;9.44;100.00
46768;BME280;69007;48.978;18.066;2023-10-19T06:56:49;96428.34;;;9.46;100.00
46768;BME280;69007;48.978;18.066;2023-10-19T06:59:14;96437.56;;;9.45;100.00
46768;BME280;69007;48.978;18.066;2023-10-19T07:01:40;96401.91;;;9.27;100.00
46768;BME280;69007;48.978;18.066;2023-10-19T07:04:05;96407.03;;;9.34;100.00
46768;BME280;69007;48.978;18.066;2023-10-19T07:06:30;96434.22;;;9.53;100.00
46768;BME280;69007;48.978;18.066;2023-10-19T07:08:56;96383.34;;;9.39;100.00
46768;BME280;69007;48.978;18.066;2023-10-19T07:11:21;96392.22;;;9.21;100.00
46768;BME280;69007;48.978;18.066;2023-10-19T07:13:49;96384.88;;;9.21;100.00
46768;BME280;69007;48.978;18.066;2023-10-19T07:16:14;96417.44;;;9.51;100.00
46768;BME280;69007;48.978;18.066;2023-10-19T07:18:39;96414.59;;;9.61;100.00
46768;BME280;69007;48.978;18.066;2023-10-19T07:21:05;96406.16;;;9.63;100.00
46768;BME280;69007;48.978;18.066;2023-10-19T07:23:35;96384.31;;;9.49;100.00
46768;BME280;69007;48.978;18.066;2023-10-19T07:26:03;96420.81;;;9.62;100.00
46768;BME280;69007;48.978;18.066;2023-10-19T07:28:29;96400.66;;;9.68;100.00
46768;BME280;69007;48.978;18.066;2023-10-19T07:30:55;96358.38;;;9.37;100.00
46768;BME280;69007;48.978;18.066;2023-10-19T07:33:21;96372.00;;;9.56;100.00
46768;BME280;69007;48.978;18.066;2023-10-19T07:35:48;96364.06;;;9.60;100.00
46768;BME280;69007;48.978;18.066;2023-10-19T07:38:18;96348.91;;;9.59;100.00
46768;BME280;69007;48.978;18.066;2023-10-19T07:40:46;96369.06;;;9.77;100.00
46768;BME280;69007;48.978;18.066;2023-10-19T07:43:11;96359.28;;;9.76;100.00
46768;BME280;69007;48.978;18.066;2023-10-19T07:45:36;96351.53;;;9.64;100.00
46768;BME280;69007;48.978;18.066;2023-10-19T07:48:03;96395.09;;;9.78;100.00
46768;BME280;69007;48.978;18.066;2023-10-19T07:50:36;96353.75;;;9.62;100.00
46768;BME280;69007;48.978;18.066;2023-10-19T07:53:02;96342.31;;;9.65;100.00
46768;BME280;69007;48.978;18.066;2023-10-19T07:55:29;96374.28;;;9.92;100.00
46768;BME280;69007;48.978;18.066;2023-10-19T07:57:57;96354.97;;;9.94;100.00
46768;BME280;69007;48.978;18.066;2023-10-19T08:00:25;96362.81;;;9.95;100.00
46768;BME280;69007;48.978;18.066;2023-10-19T08:02:52;96325.22;;;9.84;100.00
46768;BME280;69007;48.978;18.066;2023-10-19T08:05:19;96355.47;;;9.96;100.00
46768;BME280;69007;48.978;18.066;2023-10-19T08:07:44;96365.69;;;10.04;100.00
46768;BME280;69007;48.978;18.066;2023-10-19T08:10:13;96349.09;;;10.06;100.00
46768;BME280;69007;48.978;18.066;2023-10-19T08:12:39;96350.78;;;10.02;100.00
46768;BME280;69007;48.978;18.066;2023-10-19T08:15:11;96313.91;;;9.95;100.00
46768;BME280;69007;48.978;18.066;2023-10-19T08:17:41;96342.78;;;10.10;100.00
46768;BME280;69007;48.978;18.066;2023-10-19T08:20:08;96358.59;;;10.08;100.00
46768;BME280;69007;48.978;18.066;2023-10-19T08:22:36;96367.47;;;10.14;100.00
46768;BME280;69007;48.978;18.066;2023-10-19T08:25:03;96341.22;;;10.04;100.00
46768;BME280;69007;48.978;18.066;2023-10-19T08:27:29;96346.50;;;10.14;100.00
46768;BME280;69007;48.978;18.066;2023-10-19T08:29:55;96340.34;;;10.09;100.00
46768;BME280;69007;48.978;18.066;2023-10-19T08:32:20;96329.19;;;10.10;100.00
46768;BME280;69007;48.978;18.066;2023-10-19T08:34:46;96352.13;;;10.23;100.00
46768;BME280;69007;48.978;18.066;2023-10-19T08:37:11;96355.72;;;10.19;100.00
46768;BME280;69007;48.978;18.066;2023-10-19T08:39:36;96344.53;;;10.20;100.00
46768;BME280;69007;48.978;18.066;2023-10-19T08:42:03;96340.28;;;10.14;100.00
46768;BME280;69007;48.978;18.066;2023-10-19T08:44:29;96352.19;;;10.37;100.00
46768;BME280;69007;48.978;18.066;2023-10-19T08:46:55;96325.31;;;10.17;100.00
46768;BME280;69007;48.978;18.066;2023-10-19T08:49:22;96348.19;;;10.29;100.00
46768;BME280;69007;48.978;18.066;2023-10-19T08:51:48;96323.97;;;10.14;100.00
46768;BME280;69007;48.978;18.066;2023-10-19T08:54:15;96359.19;;;10.43;100.00
46768;BME280;69007;48.978;18.066;2023-10-19T08:56:42;96336.34;;;10.44;100.00
46768;BME280;69007;48.978;18.066;2023-10-19T08:59:10;96314.28;;;10.27;100.00
46768;BME280;69007;48.978;18.066;2023-10-19T09:01:37;96352.03;;;10.47;100.00
46768;BME280;69007;48.978;18.066;2023-10-19T09:04:02;96350.22;;;10.43;100.00
46768;BME280;69007;48.978;18.066;2023-10-19T09:06:33;96342.28;;;10.46;100.00
46768;BME280;69007;48.978;18.066;2023-10-19T09:09:09;96310.00;;;10.21;100.00
46768;BME280;69007;48.978;18.066;2023-10-19T09:11:39;96307.75;;;10.28;100.00
46768;BME280;69007;48.978;18.066;2023-10-19T09:14:04;96303.84;;;10.34;100.00
46768;BME280;69007;48.978;18.066;2023-10-19T09:16:29;96333.25;;;10.51;100.00
46768;BME280;69007;48.978;18.066;2023-10-19T09:18:56;96335.13;;;10.50;100.00
46768;BME280;69007;48.978;18.066;2023-10-19T09:21:22;96289.81;;;10.08;100.00
46768;BME280;69007;48.978;18.066;2023-10-19T09:23:52;96312.84;;;10.29;100.00
46768;BME280;69007;48.978;18.066;2023-10-19T09:26:18;96337.25;;;10.54;100.00
46768;BME280;69007;48.978;18.066;2023-10-19T09:28:49;96344.13;;;10.51;100.00
46768;BME280;69007;48.978;18.066;2023-10-19T09:31:15;96297.03;;;10.37;100.00
46768;BME280;69007;48.978;18.066;2023-10-19T09:33:44;96300.97;;;10.44;100.00
46768;BME280;69007;48.978;18.066;2023-10-19T09:36:11;96318.47;;;10.71;100.00
46768;BME280;69007;48.978;18.066;2023-10-19T09:38:49;96284.78;;;10.53;100.00
46768;BME280;69007;48.978;18.066;2023-10-19T09:41:20;96321.41;;;10.75;100.00
46768;BME280;69007;48.978;18.066;2023-10-19T09:43:48;96298.22;;;10.77;100.00
46768;BME280;69007;48.978;18.066;2023-10-19T09:46:22;96302.06;;;10.76;100.00
46768;BME280;69007;48.978;18.066;2023-10-19T09:48:49;96286.44;;;10.68;100.00
46768;BME280;69007;48.978;18.066;2023-10-19T09:51:15;96279.38;;;10.67;100.00
46768;BME280;69007;48.978;18.066;2023-10-19T09:53:44;96313.06;;;10.85;100.00
46768;BME280;69007;48.978;18.066;2023-10-19T09:56:15;96265.25;;;10.65;100.00
46768;BME280;69007;48.978;18.066;2023-10-19T09:58:49;96264.66;;;10.68;100.00
46768;BME280;69007;48.978;18.066;2023-10-19T10:01:16;96277.19;;;10.83;100.00
46768;BME280;69007;48.978;18.066;2023-10-19T10:06:15;96242.91;;;10.68;100.00
46768;BME280;69007;48.978;18.066;2023-10-19T10:08:44;96287.56;;;10.81;100.00
46768;BME280;69007;48.978;18.066;2023-10-19T10:11:18;96264.06;;;10.71;100.00
46768;BME280;69007;48.978;18.066;2023-10-19T10:13:45;96245.22;;;10.75;100.00
46768;BME280;69007;48.978;18.066;2023-10-19T10:16:15;96263.47;;;10.88;100.00
46768;BME280;69007;48.978;18.066;2023-10-19T10:18:41;96268.44;;;11.00;100.00
46768;BME280;69007;48.978;18.066;2023-10-19T10:23:44;96279.22;;;11.05;100.00
46768;BME280;69007;48.978;18.066;2023-10-19T10:26:13;96284.25;;;11.12;100.00
46768;BME280;69007;48.978;18.066;2023-10-19T10:28:45;96241.41;;;10.90;100.00
46768;BME280;69007;48.978;18.066;2023-10-19T10:33:41;96262.38;;;11.03;100.00
46768;BME280;69007;48.978;18.066;2023-10-19T10:36:10;96256.72;;;11.13;100.00
46768;BME280;69007;48.978;18.066;2023-10-19T10:41:59;96253.41;;;11.02;100.00
46768;BME280;69007;48.978;18.066;2023-10-19T10:44:38;96249.06;;;11.01;100.00
46768;BME280;69007;48.978;18.066;2023-10-19T10:47:12;96247.06;;;11.07;100.00
46768;BME280;69007;48.978;18.066;2023-10-19T10:57:32;96215.81;;;11.04;100.00
46768;BME280;69007;48.978;18.066;2023-10-19T11:00:06;96210.16;;;11.01;100.00
46768;BME280;69007;48.978;18.066;2023-10-19T11:02:34;96216.81;;;11.09;100.00
46768;BME280;69007;48.978;18.066;2023-10-19T11:04:59;96230.72;;;11.21;100.00
46768;BME280;69007;48.978;18.066;2023-10-19T11:07:25;96241.81;;;11.24;100.00
46768;BME280;69007;48.978;18.066;2023-10-19T11:09:50;96214.69;;;11.19;100.00
46768;BME280;69007;48.978;18.066;2023-10-19T11:12:16;96211.97;;;11.19;100.00
46768;BME280;69007;48.978;18.066;2023-10-19T11:14:58;96206.53;;;11.19;100.00
46768;BME280;69007;48.978;18.066;2023-10-19T11:17:24;96182.13;;;11.14;100.00
46768;BME280;69007;48.978;18.066;2023-10-19T11:19:59;96187.66;;;11.23;100.00
46768;BME280;69007;48.978;18.066;2023-10-19T11:22:25;96208.31;;;11.38;100.00
46768;BME280;69007;48.978;18.066;2023-10-19T11:24:52;96157.03;;;11.17;100.00
46768;BME280;69007;48.978;18.066;2023-10-19T11:27:25;96174.75;;;11.29;100.00
46768;BME280;69007;48.978;18.066;2023-10-19T11:32:21;96177.38;;;11.34;100.00
46768;BME280;69007;48.978;18.066;2023-10-19T11:34:46;96163.16;;;11.23;100.00
46768;BME280;69007;48.978;18.066;2023-10-19T11:37:12;96200.97;;;11.38;100.00
46768;BME280;69007;48.978;18.066;2023-10-19T11:39:39;96191.53;;;11.44;100.00
46768;BME280;69007;48.978;18.066;2023-10-19T11:42:04;96186.41;;;11.43;100.00
46768;BME280;69007;48.978;18.066;2023-10-19T11:44:30;96173.81;;;11.33;100.00
46768;BME280;69007;48.978;18.066;2023-10-19T11:46:55;96168.88;;;11.35;100.00
46768;BME280;69007;48.978;18.066;2023-10-19T11:52:42;96125.50;;;11.02;100.00
46768;BME280;69007;48.978;18.066;2023-10-19T11:55:08;96187.34;;;11.38;100.00
46768;BME280;69007;48.978;18.066;2023-10-19T11:57:34;96175.50;;;11.43;100.00
46768;BME280;69007;48.978;18.066;2023-10-19T12:00:00;96185.41;;;11.39;100.00
46768;BME280;69007;48.978;18.066;2023-10-19T12:02:26;96171.00;;;11.38;100.00
46768;BME280;69007;48.978;18.066;2023-10-19T12:04:52;96176.53;;;11.33;100.00
46768;BME280;69007;48.978;18.066;2023-10-19T12:07:17;96154.13;;;11.36;100.00
46768;BME280;69007;48.978;18.066;2023-10-19T12:09:43;96148.50;;;11.33;100.00
46768;BME280;69007;48.978;18.066;2023-10-19T12:12:10;96156.31;;;11.48;100.00
46768;BME280;69007;48.978;18.066;2023-10-19T12:14:38;96150.50;;;11.41;100.00
46768;BME280;69007;48.978;18.066;2023-10-19T12:17:03;96138.94;;;11.35;100.00
46768;BME280;69007;48.978;18.066;2023-10-19T12:19:31;96143.84;;;11.47;100.00
46768;BME280;69007;48.978;18.066;2023-10-19T12:21:57;96155.50;;;11.61;100.00
46768;BME280;69007;48.978;18.066;2023-10-19T12:24:23;96130.34;;;11.42;100.00
46768;BME280;69007;48.978;18.066;2023-10-19T12:26:49;96158.22;;;11.61;100.00
46768;BME280;69007;48.978;18.066;2023-10-19T12:29:16;96126.47;;;11.43;100.00
46768;BME280;69007;48.978;18.066;2023-10-19T12:31:42;96155.09;;;11.54;100.00
46768;BME280;69007;48.978;18.066;2023-10-19T12:34:08;96119.56;;;11.37;100.00
46768;BME280;69007;48.978;18.066;2023-10-19T12:36:36;96128.59;;;11.46;100.00
46768;BME280;69007;48.978;18.066;2023-10-19T12:42:22;96113.88;;;11.47;100.00
46768;BME280;69007;48.978;18.066;2023-10-19T12:44:48;96108.78;;;11.54;100.00
46768;BME280;69007;48.978;18.066;2023-10-19T12:47:13;96118.34;;;11.66;100.00
46768;BME280;69007;48.978;18.066;2023-10-19T12:49:40;96142.13;;;11.74;100.00
46768;BME280;69007;48.978;18.066;2023-10-19T12:52:08;96138.72;;;11.68;100.00
46768;BME280;69007;48.978;18.066;2023-10-19T12:54:35;96133.06;;;11.65;100.00
46768;BME280;69007;48.978;18.066;2023-10-19T12:57:02;96113.38;;;11.45;100.00
46768;BME280;69007;48.978;18.066;2023-10-19T12:59:29;96101.47;;;11.41;100.00
46768;BME280;69007;48.978;18.066;2023-10-19T13:01:55;96099.25;;;11.43;100.00
46768;BME280;69007;48.978;18.066;2023-10-19T13:04:24;96075.69;;;11.38;100.00
46768;BME280;69007;48.978;18.066;2023-10-19T13:06:50;96123.16;;;11.69;100.00
46768;BME280;69007;48.978;18.066;2023-10-19T13:09:17;96099.50;;;11.55;100.00
46768;BME280;69007;48.978;18.066;2023-10-19T13:11:47;96092.13;;;11.56;100.00
46768;BME280;69007;48.978;18.066;2023-10-19T13:14:17;96085.91;;;11.55;100.00
46768;BME280;69007;48.978;18.066;2023-10-19T13:16:43;96111.97;;;11.70;100.00
46768;BME280;69007;48.978;18.066;2023-10-19T13:19:08;96093.94;;;11.60;100.00
46768;BME280;69007;48.978;18.066;2023-10-19T13:21:41;96065.06;;;11.59;100.00
46768;BME280;69007;48.978;18.066;2023-10-19T13:24:08;96069.28;;;11.66;100.00
46768;BME280;69007;48.978;18.066;2023-10-19T13:26:33;96093.28;;;11.86;100.00
46768;BME280;69007;48.978;18.066;2023-10-19T13:28:59;96089.94;;;11.89;100.00